Time;durP1;ratioP1;P1;durP2;ratioP2;P2;SDS_P1;SDS_P2;PMS_P1;PMS_P2;Temp;Humidity;BMP_temperature;BMP_pressure;BME280_temperature;BME280_humidity;BME280_pressure;Samples;Min_cycle;Max_cycle;Signal;HPM_P1;HPM_P2
2022/11/18 03:48:16;;;;;;;0.20;0.00;;;9.60;98.80;;;;;;5010274;23;88577;-76
2022/11/18 03:50:47;;;;;;;0.10;0.00;;;9.60;98.80;;;;;;4823800;29;88774;-74
2022/11/18 03:53:16;;;;;;;0.10;0.00;;;9.60;98.50;;;;;;4833319;29;87361;-76
2022/11/18 03:55:47;;;;;;;0.10;0.00;;;9.50;98.90;;;;;;4823592;29;86373;-76
2022/11/18 03:58:26;;;;;;;0.15;0.00;;;9.50;99.00;;;;;;4827370;29;87008;-76
2022/11/18 04:01:00;;;;;;;0.60;0.00;;;9.50;99.00;;;;;;4836885;29;88167;-76
2022/11/18 04:03:26;;;;;;;0.20;0.00;;;9.50;99.90;;;;;;4842102;29;86286;-76
2022/11/18 04:06:02;;;;;;;0.00;0.00;;;9.50;99.90;;;;;;4842240;29;86278;-77
2022/11/18 04:08:35;;;;;;;0.98;0.00;;;9.50;98.20;;;;;;4841826;29;88616;-75
2022/11/18 04:14:03;;;;;;;0.05;0.00;;;9.50;98.60;;;;;;4838799;29;86227;-72
2022/11/18 04:16:29;;;;;;;0.10;0.00;;;9.60;97.10;;;;;;4823624;29;86367;-75
2022/11/18 04:18:54;;;;;;;2.05;0.00;;;9.70;97.30;;;;;;4823087;29;87454;-75
2022/11/18 04:21:20;;;;;;;0.20;0.00;;;9.80;96.20;;;;;;4833219;29;87315;-76
2022/11/18 04:23:46;;;;;;;1.83;0.00;;;9.90;96.10;;;;;;4839797;29;86284;-76
2022/11/18 04:26:11;;;;;;;0.30;0.00;;;9.90;96.00;;;;;;4839754;29;86765;-75
2022/11/18 04:28:37;;;;;;;0.00;0.00;;;9.90;96.10;;;;;;4833905;29;87024;-76
2022/11/18 04:31:02;;;;;;;0.10;0.00;;;10.00;95.90;;;;;;4837007;29;86891;-76
2022/11/18 04:33:28;;;;;;;0.28;0.00;;;10.00;95.50;;;;;;4840166;29;87937;-76
2022/11/18 04:35:54;;;;;;;0.10;0.00;;;10.00;95.60;;;;;;4825770;29;86041;-76
2022/11/18 04:38:19;;;;;;;0.20;0.00;;;10.00;95.20;;;;;;4832514;29;87917;-76
2022/11/18 04:40:45;;;;;;;0.00;0.00;;;10.00;95.10;;;;;;4828344;29;86935;-75
2022/11/18 04:43:11;;;;;;;0.10;0.00;;;10.00;95.20;;;;;;4832840;29;87473;-74
2022/11/18 04:45:37;;;;;;;1.75;0.00;;;10.00;94.80;;;;;;4840899;29;86236;-75
2022/11/18 04:48:02;;;;;;;0.70;0.00;;;10.00;95.20;;;;;;4841560;29;87758;-75
2022/11/18 04:50:28;;;;;;;1.00;0.00;;;10.00;95.60;;;;;;4841461;29;87297;-75
2022/11/18 04:52:54;;;;;;;1.13;0.10;;;10.00;95.40;;;;;;4841605;29;86645;-75
2022/11/18 04:55:19;;;;;;;0.32;0.00;;;10.10;95.00;;;;;;4835334;29;86631;-74
2022/11/18 04:57:45;;;;;;;0.15;0.00;;;10.00;95.40;;;;;;4831839;29;86725;-75
2022/11/18 05:00:11;;;;;;;0.65;0.00;;;10.00;95.50;;;;;;4841874;29;86546;-76
2022/11/18 05:02:37;;;;;;;0.30;0.00;;;10.00;96.00;;;;;;4836078;29;86389;-76
2022/11/18 05:05:02;;;;;;;0.75;0.00;;;10.00;95.70;;;;;;4841246;29;86267;-76
2022/11/18 05:07:28;;;;;;;0.20;0.00;;;10.00;96.00;;;;;;4836304;29;88275;-76
2022/11/18 05:09:54;;;;;;;0.40;0.00;;;10.00;96.00;;;;;;4829279;29;87752;-76
2022/11/18 05:15:04;;;;;;;0.15;0.00;;;9.80;96.10;;;;;;4835032;29;86271;-76
2022/11/18 05:17:29;;;;;;;0.68;0.00;;;9.70;96.50;;;;;;4831094;29;87024;-76
2022/11/18 05:19:55;;;;;;;0.30;0.00;;;9.70;96.70;;;;;;4831196;29;86918;-76
2022/11/18 05:22:21;;;;;;;2.63;0.20;;;9.70;97.20;;;;;;4839718;29;86389;-75
2022/11/18 05:24:46;;;;;;;0.47;0.00;;;9.70;96.90;;;;;;4839202;29;85696;-77
2022/11/18 05:27:12;;;;;;;0.88;0.10;;;9.70;97.20;;;;;;4830870;29;86899;-76
2022/11/18 05:29:38;;;;;;;1.65;0.20;;;9.70;97.30;;;;;;4838410;29;87037;-77
2022/11/18 05:32:04;;;;;;;0.95;0.10;;;9.60;97.40;;;;;;4830481;29;87179;-77
2022/11/18 05:34:30;;;;;;;2.28;0.10;;;9.60;97.30;;;;;;4840549;29;86282;-77
2022/11/18 05:36:55;;;;;;;1.02;0.13;;;9.50;97.80;;;;;;4838396;29;87312;-76
2022/11/18 05:39:21;;;;;;;2.85;0.38;;;9.40;98.20;;;;;;4826710;29;87294;-76
2022/11/18 05:44:31;;;;;;;4.70;0.52;;;9.20;98.80;;;;;;4833931;29;86247;-75
2022/11/18 05:46:56;;;;;;;4.72;0.88;;;9.20;99.40;;;;;;4831242;29;87466;-77
2022/11/18 05:49:22;;;;;;;2.85;0.20;;;9.20;99.70;;;;;;4838805;29;86665;-76
2022/11/18 05:51:48;;;;;;;1.60;0.10;;;9.30;99.50;;;;;;4832395;29;87010;-77
2022/11/18 05:54:16;;;;;;;3.17;0.20;;;9.40;99.30;;;;;;4838595;29;86253;-76
2022/11/18 05:56:46;;;;;;;1.33;0.08;;;9.40;98.90;;;;;;4838928;29;88891;-76
2022/11/18 05:59:12;;;;;;;0.20;0.00;;;9.50;98.40;;;;;;4832056;29;86906;-75
2022/11/18 06:01:59;;;;;;;0.50;0.00;;;9.50;98.20;;;;;;4835095;29;87268;-77
2022/11/18 06:04:27;;;;;;;0.40;0.00;;;9.50;98.10;;;;;;4837369;29;86807;-76
2022/11/18 06:07:01;;;;;;;0.20;0.00;;;9.60;97.50;;;;;;4836932;29;87300;-76
2022/11/18 06:09:31;;;;;;;0.52;0.00;;;9.70;97.50;;;;;;4839510;29;86844;-76
2022/11/18 06:12:00;;;;;;;1.02;0.10;;;9.60;97.60;;;;;;4837366;29;86952;-76
2022/11/18 06:14:39;;;;;;;0.55;0.00;;;9.70;98.00;;;;;;4833560;29;85767;-76
2022/11/18 06:17:09;;;;;;;0.60;0.10;;;9.70;97.70;;;;;;4837585;29;87031;-75
2022/11/18 06:19:35;;;;;;;0.17;0.00;;;9.70;97.30;;;;;;4838387;29;87410;-75
2022/11/18 06:22:01;;;;;;;0.45;0.00;;;9.70;97.30;;;;;;4839694;29;87421;-75
2022/11/18 06:24:27;;;;;;;0.20;0.00;;;9.70;97.20;;;;;;4833465;29;87841;-75
2022/11/18 06:26:53;;;;;;;0.20;0.00;;;9.70;97.40;;;;;;4834442;29;87782;-75
2022/11/18 06:29:20;;;;;;;0.80;0.00;;;9.70;97.10;;;;;;4842119;29;86534;-75
2022/11/18 06:31:45;;;;;;;0.57;0.05;;;9.60;97.30;;;;;;4843079;29;86816;-75
2022/11/18 06:34:11;;;;;;;2.13;0.10;;;9.60;98.60;;;;;;4843056;29;86726;-75
2022/11/18 06:36:36;;;;;;;5.57;0.10;;;9.50;97.10;;;;;;4838273;29;87426;-75
2022/11/18 06:39:06;;;;;;;2.17;0.20;;;9.50;97.30;;;;;;4830280;29;86022;-75
2022/11/18 06:41:32;;;;;;;1.70;0.10;;;9.40;97.70;;;;;;4843143;29;87376;-75
2022/11/18 06:43:57;;;;;;;2.03;0.10;;;9.40;97.90;;;;;;4839930;29;86306;-74
2022/11/18 06:49:07;;;;;;;1.90;0.10;;;9.40;98.90;;;;;;4836513;29;87083;-75
2022/11/18 06:51:33;;;;;;;3.97;0.20;;;9.40;98.60;;;;;;4834040;29;86754;-75
2022/11/18 06:53:59;;;;;;;5.53;0.20;;;9.50;98.60;;;;;;4842882;29;86924;-75
2022/11/18 06:56:25;;;;;;;5.03;0.10;;;9.60;98.20;;;;;;4833791;29;87295;-75
2022/11/18 06:58:56;;;;;;;4.30;0.20;;;9.60;98.20;;;;;;4836859;29;88156;-74
2022/11/18 07:01:25;;;;;;;2.17;0.20;;;9.60;98.20;;;;;;4833076;29;86872;-74
2022/11/18 07:03:51;;;;;;;2.22;0.43;;;9.70;97.70;;;;;;4835664;29;86736;-74
2022/11/18 07:06:20;;;;;;;2.20;0.30;;;9.80;97.90;;;;;;4836575;29;87203;-74
2022/11/18 07:08:45;;;;;;;2.20;0.20;;;9.80;97.60;;;;;;4841609;29;86783;-75
2022/11/18 07:11:14;;;;;;;1.40;0.30;;;9.90;97.30;;;;;;4830730;29;87563;-74
2022/11/18 07:13:41;;;;;;;3.80;0.30;;;9.90;97.80;;;;;;4837954;29;86861;-74
2022/11/18 07:16:09;;;;;;;6.05;1.95;;;9.90;97.90;;;;;;4836376;29;87356;-74
2022/11/18 07:18:38;;;;;;;5.40;2.65;;;10.00;98.00;;;;;;4836957;29;86502;-74
2022/11/18 07:21:05;;;;;;;2.95;0.30;;;10.00;98.10;;;;;;4837415;29;86282;-74
2022/11/18 07:23:33;;;;;;;1.27;0.13;;;9.90;97.20;;;;;;4844455;29;86990;-74
2022/11/18 07:25:59;;;;;;;1.48;0.20;;;9.90;97.80;;;;;;4836659;29;87255;-74
2022/11/18 07:28:26;;;;;;;1.50;0.20;;;9.90;97.70;;;;;;4839287;29;87155;-74
2022/11/18 07:30:52;;;;;;;2.92;0.10;;;9.90;97.20;;;;;;4838916;29;86303;-74
2022/11/18 07:33:18;;;;;;;0.30;0.00;;;9.80;96.60;;;;;;4839257;29;86937;-73
2022/11/18 07:35:43;;;;;;;1.00;0.10;;;9.70;95.20;;;;;;4833674;29;88250;-74
2022/11/18 07:38:09;;;;;;;1.48;0.08;;;9.60;94.80;;;;;;4836672;29;87305;-74
2022/11/18 07:40:35;;;;;;;0.60;0.00;;;9.60;95.80;;;;;;4836442;29;87001;-77
2022/11/18 07:43:01;;;;;;;0.40;0.00;;;9.50;95.10;;;;;;4831869;29;86779;-74
2022/11/18 07:45:26;;;;;;;0.10;0.00;;;9.50;93.70;;;;;;4830654;29;86986;-75
2022/11/18 07:47:52;;;;;;;0.40;0.00;;;9.40;94.50;;;;;;4838192;29;87073;-75
2022/11/18 07:50:18;;;;;;;0.22;0.00;;;9.50;94.70;;;;;;4834004;29;86852;-74
2022/11/18 07:52:43;;;;;;;38.13;14.63;;;9.50;94.70;;;;;;4833291;29;85582;-75
2022/11/18 07:55:09;;;;;;;2.63;0.50;;;9.50;94.60;;;;;;4835673;29;86971;-75
2022/11/18 07:57:35;;;;;;;0.40;0.00;;;9.50;94.10;;;;;;4841378;29;87153;-75
2022/11/18 08:00:00;;;;;;;1.58;0.00;;;9.50;94.20;;;;;;4849132;29;87148;-75
2022/11/18 08:02:26;;;;;;;0.20;0.00;;;9.60;94.30;;;;;;4833130;29;87532;-75
2022/11/18 08:04:52;;;;;;;0.90;0.20;;;9.60;95.30;;;;;;4838445;29;87269;-76
2022/11/18 08:07:17;;;;;;;2.00;0.20;;;9.70;94.90;;;;;;4840701;29;86943;-75
2022/11/18 08:09:43;;;;;;;6.20;3.65;;;9.60;94.80;;;;;;4832156;29;88055;-73
2022/11/18 08:12:08;;;;;;;2.13;0.95;;;9.60;95.10;;;;;;4837047;29;87017;-74
2022/11/18 08:14:34;;;;;;;0.95;0.20;;;9.70;94.70;;;;;;4841252;29;86520;-75
2022/11/18 08:17:00;;;;;;;1.15;0.30;;;9.80;94.30;;;;;;4840579;29;87407;-75
2022/11/18 08:19:26;;;;;;;1.02;0.20;;;9.80;93.90;;;;;;4847923;29;86602;-75
2022/11/18 08:21:51;;;;;;;0.98;0.10;;;9.80;94.80;;;;;;4835138;29;87190;-75
2022/11/18 08:24:17;;;;;;;1.15;0.10;;;9.90;93.90;;;;;;4829044;29;88233;-75
2022/11/18 08:26:44;;;;;;;0.95;0.13;;;10.00;93.20;;;;;;4836617;29;87159;-75
2022/11/18 08:29:09;;;;;;;3.58;1.02;;;10.10;93.60;;;;;;4836793;29;86365;-75
2022/11/18 08:31:35;;;;;;;2.42;0.60;;;10.20;93.10;;;;;;4842973;29;86590;-75
2022/11/18 08:34:04;;;;;;;7.70;3.92;;;10.20;92.20;;;;;;4834128;29;86983;-75
2022/11/18 08:36:33;;;;;;;2.13;0.45;;;10.30;92.30;;;;;;4836433;29;87398;-74
2022/11/18 08:39:00;;;;;;;1.30;0.10;;;10.40;92.50;;;;;;4830036;29;86984;-73
2022/11/18 08:41:34;;;;;;;0.45;0.10;;;10.40;93.00;;;;;;4842891;29;86200;-75
2022/11/18 08:44:00;;;;;;;0.40;0.00;;;10.30;92.80;;;;;;4832714;29;87751;-74
2022/11/18 08:46:26;;;;;;;4.63;0.25;;;10.40;93.10;;;;;;4836923;29;87373;-74
2022/11/18 08:48:52;;;;;;;3.45;0.20;;;10.40;92.90;;;;;;4835883;29;87839;-75
2022/11/18 08:51:17;;;;;;;8.98;2.30;;;10.30;93.40;;;;;;4835571;29;86959;-74
2022/11/18 08:53:43;;;;;;;37.60;7.82;;;10.30;93.50;;;;;;4831865;29;87835;-74
2022/11/18 08:56:14;;;;;;;25.50;4.20;;;10.30;93.00;;;;;;4837767;29;87063;-75
2022/11/18 08:58:40;;;;;;;14.30;1.33;;;10.30;92.90;;;;;;4836736;29;86920;-76
2022/11/18 09:01:07;;;;;;;7.70;0.30;;;10.30;93.60;;;;;;4842039;29;86849;-76
2022/11/18 09:03:33;;;;;;;4.32;0.17;;;10.30;93.20;;;;;;4838412;29;87824;-76
2022/11/18 09:06:14;;;;;;;3.72;0.32;;;10.30;93.50;;;;;;4850615;29;86343;-75
2022/11/18 09:08:40;;;;;;;3.17;0.10;;;10.40;92.40;;;;;;4841220;29;86722;-75
2022/11/18 09:11:14;;;;;;;1.00;0.10;;;10.40;92.20;;;;;;4840010;29;86500;-75
2022/11/18 09:13:41;;;;;;;1.45;0.10;;;10.50;92.50;;;;;;4840135;29;88630;-76
2022/11/18 09:16:07;;;;;;;1.02;0.20;;;10.60;93.40;;;;;;4836303;29;87050;-75
2022/11/18 09:18:33;;;;;;;1.00;0.20;;;10.60;92.60;;;;;;4839211;29;86821;-75
2022/11/18 09:21:05;;;;;;;4.07;0.10;;;10.60;92.00;;;;;;4837062;29;86277;-74
2022/11/18 09:23:32;;;;;;;1.75;0.15;;;10.60;92.80;;;;;;4841611;29;87668;-75
2022/11/18 09:26:02;;;;;;;1.15;0.10;;;10.70;92.90;;;;;;4834675;29;87000;-75
2022/11/18 09:28:28;;;;;;;0.52;0.10;;;10.80;92.50;;;;;;4839703;29;86278;-74
2022/11/18 09:30:54;;;;;;;1.65;0.10;;;10.80;92.10;;;;;;4836030;29;85677;-75
2022/11/18 09:33:20;;;;;;;0.20;0.00;;;10.80;92.50;;;;;;4841243;29;86909;-75
2022/11/18 09:35:46;;;;;;;0.30;0.00;;;10.90;91.70;;;;;;4837451;29;88485;-75
2022/11/18 09:38:12;;;;;;;0.30;0.00;;;10.90;91.50;;;;;;4842334;29;87360;-76
2022/11/18 09:40:58;;;;;;;0.32;0.00;;;11.00;91.40;;;;;;4841069;29;86895;-75
2022/11/18 09:44:04;;;;;;;0.20;0.00;;;11.10;91.30;;;;;;4840658;29;87135;-76
2022/11/18 09:47:11;;;;;;;0.52;0.05;;;11.10;91.50;;;;;;4791917;29;87071;-76
2022/11/18 09:49:39;;;;;;;1.77;0.00;;;11.00;91.10;;;;;;4833099;29;86372;-74
2022/11/18 09:52:28;;;;;;;2.13;0.38;;;11.10;91.00;;;;;;4840689;29;86283;-75
2022/11/18 09:54:54;;;;;;;0.43;0.00;;;11.10;90.90;;;;;;4845321;29;87356;-76
2022/11/18 09:57:35;;;;;;;2.08;0.13;;;11.20;90.30;;;;;;4841717;29;86556;-75
2022/11/18 10:00:01;;;;;;;0.55;0.08;;;11.10;90.00;;;;;;4842923;29;86831;-76
2022/11/18 10:02:54;;;;;;;0.30;0.00;;;11.10;89.70;;;;;;4844558;29;86930;-74
2022/11/18 10:05:23;;;;;;;0.40;0.00;;;11.10;89.10;;;;;;4843022;29;88929;-75
2022/11/18 10:08:04;;;;;;;0.68;0.10;;;11.20;89.40;;;;;;4842624;29;87674;-75
2022/11/18 10:11:06;;;;;;;0.38;0.00;;;11.30;90.00;;;;;;4834309;29;86666;-75
2022/11/18 10:13:53;;;;;;;0.30;0.00;;;11.40;90.70;;;;;;4847164;29;86303;-75
2022/11/18 10:16:38;;;;;;;1.13;0.10;;;11.50;88.70;;;;;;4845046;29;87031;-76
2022/11/18 10:19:15;;;;;;;0.82;0.10;;;11.50;89.20;;;;;;4840618;29;87012;-77
2022/11/18 10:21:54;;;;;;;0.50;0.10;;;11.60;90.40;;;;;;4839704;29;86436;-76
2022/11/18 10:24:23;;;;;;;1.30;0.20;;;11.60;90.40;;;;;;4842869;29;86102;-76
2022/11/18 10:26:55;;;;;;;0.85;0.10;;;11.50;90.20;;;;;;4839595;29;87627;-76
2022/11/18 10:29:22;;;;;;;0.90;0.10;;;11.50;90.60;;;;;;4840364;29;86320;-77
2022/11/18 10:32:01;;;;;;;1.75;0.13;;;11.50;90.10;;;;;;4845942;29;87262;-76
2022/11/18 10:34:27;;;;;;;2.03;0.10;;;11.50;89.90;;;;;;4851733;29;86999;-76
2022/11/18 10:37:00;;;;;;;3.63;0.50;;;11.50;90.30;;;;;;4845656;29;86653;-76
2022/11/18 10:39:26;;;;;;;2.63;0.50;;;11.40;89.90;;;;;;4836919;29;87725;-76
2022/11/18 10:41:59;;;;;;;1.98;0.20;;;11.40;90.50;;;;;;4836044;29;86419;-78
2022/11/18 10:44:36;;;;;;;1.23;0.20;;;11.50;90.70;;;;;;4847311;29;86682;-75
2022/11/18 10:47:22;;;;;;;1.27;0.10;;;11.50;91.10;;;;;;4842383;29;87041;-75
2022/11/18 10:49:50;;;;;;;3.17;0.20;;;11.50;90.70;;;;;;4841262;29;87454;-76
2022/11/18 10:52:15;;;;;;;1.58;0.20;;;11.40;89.90;;;;;;4838442;29;86897;-76
2022/11/18 10:54:42;;;;;;;1.23;0.17;;;11.30;90.30;;;;;;4834530;29;86967;-76
2022/11/18 10:57:20;;;;;;;3.92;1.10;;;11.30;91.20;;;;;;4827442;29;87795;-77
2022/11/18 10:59:49;;;;;;;3.03;0.40;;;11.30;91.00;;;;;;4835662;29;88335;-75
2022/11/18 11:02:17;;;;;;;1.08;0.15;;;11.20;91.70;;;;;;4838016;29;88155;-76
2022/11/18 11:04:47;;;;;;;3.42;0.40;;;11.10;89.90;;;;;;4845060;29;87080;-77
2022/11/18 11:07:32;;;;;;;3.53;1.10;;;11.10;91.80;;;;;;4843891;29;87147;-76
2022/11/18 11:10:11;;;;;;;2.78;0.30;;;11.10;92.50;;;;;;4837887;29;87179;-77
2022/11/18 11:13:13;;;;;;;2.90;0.70;;;11.20;91.70;;;;;;4840493;29;89079;-76
2022/11/18 11:15:45;;;;;;;5.55;2.10;;;11.20;92.20;;;;;;4830868;29;86656;-76
2022/11/18 11:21:14;;;;;;;4.10;0.20;;;11.30;91.70;;;;;;4837660;29;86757;-76
2022/11/18 11:23:40;;;;;;;1.40;0.30;;;11.30;91.20;;;;;;4838839;29;87880;-77
2022/11/18 11:26:16;;;;;;;2.97;0.60;;;11.30;91.10;;;;;;4833341;29;86428;-77
2022/11/18 11:29:04;;;;;;;2.05;0.57;;;11.30;90.40;;;;;;4833176;29;86623;-76
2022/11/18 11:31:59;;;;;;;1.40;0.30;;;11.30;90.90;;;;;;4841867;29;87355;-75
2022/11/18 11:34:58;;;;;;;1.05;0.20;;;11.30;90.60;;;;;;4839173;29;86287;-76
2022/11/18 11:37:32;;;;;;;0.90;0.30;;;11.40;88.50;;;;;;4837487;29;87547;-76
2022/11/18 11:40:25;;;;;;;0.50;0.10;;;11.50;90.40;;;;;;4833315;29;87748;-77
2022/11/18 11:43:15;;;;;;;1.23;0.10;;;11.50;90.00;;;;;;4838438;29;86234;-77
2022/11/18 11:45:56;;;;;;;1.40;0.25;;;11.50;87.40;;;;;;4839051;29;86487;-77
2022/11/18 11:48:46;;;;;;;4.10;0.80;;;11.60;87.80;;;;;;4834785;29;86281;-76
2022/11/18 11:51:30;;;;;;;;;;;11.60;90.00;;;;;;4835082;29;88345;-76
2022/11/18 11:54:16;;;;;;;2.78;0.10;;;11.60;89.20;;;;;;4838570;29;87621;-77
2022/11/18 11:57:02;;;;;;;0.57;0.10;;;11.70;88.30;;;;;;4838250;29;87041;-77
2022/11/18 11:59:35;;;;;;;5.03;1.23;;;11.70;84.70;;;;;;4829057;29;86732;-76
2022/11/18 12:02:24;;;;;;;3.17;0.50;;;11.70;85.40;;;;;;4833436;29;86680;-76
2022/11/18 12:05:10;;;;;;;2.42;0.50;;;11.70;86.90;;;;;;4842739;29;87155;-76
2022/11/18 12:07:45;;;;;;;1.75;0.40;;;11.80;86.50;;;;;;4838429;29;86233;-76
2022/11/18 12:10:36;;;;;;;0.68;0.00;;;11.90;86.80;;;;;;4831329;29;86497;-76
2022/11/18 12:13:07;;;;;;;1.02;0.00;;;11.90;87.00;;;;;;4839394;29;87034;-76
2022/11/18 12:15:52;;;;;;;10.32;2.55;;;12.00;87.30;;;;;;4830642;29;86903;-77
2022/11/18 12:18:38;;;;;;;9.75;2.92;;;12.10;87.20;;;;;;4846512;29;87771;-77
2022/11/18 12:21:04;;;;;;;3.47;1.00;;;12.10;86.60;;;;;;4828193;29;86352;-77
2022/11/18 12:23:31;;;;;;;11.35;5.22;;;12.00;86.60;;;;;;4830823;29;87844;-76
2022/11/18 12:26:09;;;;;;;6.00;2.05;;;12.00;85.00;;;;;;4836892;29;87546;-78
2022/11/18 12:28:40;;;;;;;2.45;0.63;;;11.90;85.80;;;;;;4836169;29;86703;-77
2022/11/18 12:31:18;;;;;;;3.17;0.30;;;12.00;86.40;;;;;;4841750;29;86921;-76
2022/11/18 12:33:52;;;;;;;1.45;0.30;;;12.00;86.40;;;;;;4834351;29;87825;-76
2022/11/18 12:36:31;;;;;;;2.60;1.00;;;12.00;87.20;;;;;;4835328;29;86991;-76
2022/11/18 12:38:58;;;;;;;41.88;12.10;;;12.00;87.10;;;;;;4833854;29;86740;-75
2022/11/18 12:44:28;;;;;;;1.45;0.30;;;12.00;87.00;;;;;;4837178;29;87675;-75
2022/11/18 12:46:58;;;;;;;1.48;0.10;;;12.10;87.20;;;;;;4840506;29;87051;-75
2022/11/18 12:49:24;;;;;;;2.38;0.10;;;12.10;84.40;;;;;;4838151;29;87152;-75
2022/11/18 12:51:59;;;;;;;2.00;0.10;;;11.70;84.90;;;;;;4836278;29;86743;-76
2022/11/18 12:54:38;;;;;;;0.55;0.10;;;11.60;85.90;;;;;;4830650;29;87630;-76
2022/11/18 12:57:20;;;;;;;0.20;0.00;;;11.70;87.90;;;;;;4839714;29;87017;-76
2022/11/18 12:59:46;;;;;;;0.80;0.00;;;11.60;86.90;;;;;;4831379;29;86746;-76
2022/11/18 13:02:21;;;;;;;0.52;0.00;;;11.50;87.20;;;;;;4835658;29;86914;-75
2022/11/18 13:05:07;;;;;;;0.65;0.00;;;11.50;86.40;;;;;;4843769;29;86756;-76
2022/11/18 13:08:13;;;;;;;0.38;0.00;;;11.50;88.00;;;;;;4844264;29;87377;-75
2022/11/18 13:13:40;;;;;;;0.80;0.10;;;11.50;88.60;;;;;;4830715;29;86580;-76
2022/11/18 13:19:06;;;;;;;0.40;0.10;;;11.50;89.00;;;;;;4839071;29;86660;-77
2022/11/18 13:24:19;;;;;;;0.10;0.00;;;11.60;88.00;;;;;;4835720;29;88325;-77
2022/11/18 13:26:46;;;;;;;0.20;0.10;;;11.60;85.90;;;;;;4837466;29;87821;-79
2022/11/18 13:29:21;;;;;;;0.20;0.00;;;11.50;85.70;;;;;;4842994;29;86986;-77
2022/11/18 13:32:22;;;;;;;0.30;0.03;;;11.40;85.80;;;;;;4842041;29;86710;-78
2022/11/18 13:35:18;;;;;;;0.50;0.00;;;11.30;85.60;;;;;;4844889;29;86701;-77
2022/11/18 13:37:59;;;;;;;0.60;0.00;;;11.30;87.80;;;;;;4840035;29;87941;-77
2022/11/18 13:40:30;;;;;;;0.25;0.00;;;11.40;86.00;;;;;;4839141;29;88767;-78
2022/11/18 13:42:56;;;;;;;0.38;0.00;;;11.40;86.80;;;;;;4838892;29;87012;-78
2022/11/18 13:45:27;;;;;;;0.90;0.00;;;11.50;86.00;;;;;;4843895;29;86975;-77
2022/11/18 13:47:56;;;;;;;0.25;0.00;;;11.50;85.70;;;;;;4826606;29;87147;-77
2022/11/18 13:50:25;;;;;;;0.45;0.00;;;11.60;86.00;;;;;;4845607;29;86849;-78
2022/11/18 13:52:57;;;;;;;0.50;0.20;;;11.60;84.90;;;;;;4844412;29;87380;-78
2022/11/18 13:55:26;;;;;;;0.50;0.00;;;11.70;83.50;;;;;;4831089;29;85652;-77
2022/11/18 13:58:02;;;;;;;0.45;0.00;;;11.70;84.10;;;;;;4836236;29;87186;-77
2022/11/18 14:00:30;;;;;;;1.38;0.00;;;11.80;85.40;;;;;;4828941;29;88185;-76
2022/11/18 14:03:01;;;;;;;0.40;0.00;;;11.80;84.00;;;;;;4847274;29;87654;-78
2022/11/18 14:05:27;;;;;;;0.47;0.00;;;11.80;83.50;;;;;;4838430;29;87048;-77
2022/11/18 14:08:04;;;;;;;0.70;0.00;;;11.90;84.40;;;;;;4828659;29;87142;-77
2022/11/18 14:10:41;;;;;;;0.70;0.00;;;11.90;84.90;;;;;;4837045;29;86342;-76
2022/11/18 14:13:31;;;;;;;1.33;0.00;;;12.00;82.00;;;;;;4840881;29;87259;-78
2022/11/18 14:15:59;;;;;;;1.75;0.00;;;12.20;82.80;;;;;;4840149;29;86993;-78
2022/11/18 14:18:30;;;;;;;0.20;0.00;;;12.30;83.00;;;;;;4843190;29;88240;-77
2022/11/18 14:20:57;;;;;;;0.90;0.10;;;12.30;80.50;;;;;;4837017;29;87551;-76
2022/11/18 14:23:36;;;;;;;2.38;0.00;;;12.30;80.80;;;;;;4835130;29;86465;-77
2022/11/18 14:26:06;;;;;;;0.60;0.00;;;12.40;84.50;;;;;;4845940;29;86420;-77
2022/11/18 14:28:36;;;;;;;;;;;12.40;82.60;;;;;;4842242;29;88388;-78
2022/11/18 14:31:25;;;;;;;0.63;0.00;;;12.40;84.10;;;;;;4837177;29;87006;-77
2022/11/18 14:34:24;;;;;;;0.32;0.00;;;12.40;83.20;;;;;;4819932;29;87204;-79
2022/11/18 14:36:51;;;;;;;0.10;0.00;;;12.40;80.30;;;;;;4841813;29;86696;-78
2022/11/18 14:39:28;;;;;;;1.60;0.00;;;12.30;80.70;;;;;;4849163;29;87722;-78
2022/11/18 14:41:55;;;;;;;0.20;0.00;;;12.30;81.70;;;;;;4842463;29;87736;-77
2022/11/18 14:44:23;;;;;;;1.02;0.00;;;12.30;81.10;;;;;;4843739;29;87172;-78
2022/11/18 14:47:24;;;;;;;0.40;0.00;;;12.20;84.10;;;;;;4842965;29;86021;-77
2022/11/18 14:49:50;;;;;;;0.30;0.03;;;12.20;80.70;;;;;;4837028;29;86800;-77
2022/11/18 14:52:16;;;;;;;0.60;0.10;;;12.20;83.10;;;;;;4836600;29;87095;-77
2022/11/18 14:54:42;;;;;;;0.17;0.00;;;12.20;81.20;;;;;;4844032;29;87780;-78
2022/11/18 14:57:14;;;;;;;1.20;0.00;;;12.00;78.30;;;;;;4832880;29;87655;-79
2022/11/18 14:59:40;;;;;;;0.75;0.00;;;11.90;80.50;;;;;;4831222;29;88903;-76
2022/11/18 15:02:13;;;;;;;0.30;0.05;;;11.80;81.00;;;;;;4836838;29;86687;-76
2022/11/18 15:04:39;;;;;;;0.20;0.00;;;11.70;81.90;;;;;;4837950;29;86997;-77
2022/11/18 15:07:05;;;;;;;0.55;0.10;;;11.70;81.60;;;;;;4834856;29;86247;-77
2022/11/18 15:09:31;;;;;;;0.50;0.00;;;11.60;81.40;;;;;;4843609;29;86763;-76
2022/11/18 15:11:56;;;;;;;0.30;0.00;;;11.50;81.60;;;;;;4848343;29;87917;-77
2022/11/18 15:14:22;;;;;;;0.52;0.00;;;11.40;82.70;;;;;;4839628;29;86956;-77
2022/11/18 15:16:48;;;;;;;0.80;0.03;;;11.20;82.20;;;;;;4842993;29;86566;-80
2022/11/18 15:19:15;;;;;;;0.80;0.00;;;11.20;83.50;;;;;;4836186;29;87919;-77
2022/11/18 15:21:41;;;;;;;0.30;0.00;;;11.10;83.00;;;;;;4835462;29;88336;-77
2022/11/18 15:24:07;;;;;;;1.65;0.10;;;11.10;83.00;;;;;;4834540;29;86737;-77
2022/11/18 15:26:38;;;;;;;0.20;0.00;;;11.00;84.10;;;;;;4840762;29;86597;-76
2022/11/18 15:29:04;;;;;;;0.60;0.00;;;10.90;84.80;;;;;;4834825;29;86974;-79
2022/11/18 15:31:30;;;;;;;0.40;0.00;;;10.80;84.00;;;;;;4835722;29;87363;-76
2022/11/18 15:33:55;;;;;;;0.57;0.00;;;10.70;83.70;;;;;;4839105;29;86591;-77
2022/11/18 15:36:23;;;;;;;0.50;0.00;;;10.70;83.50;;;;;;4838222;29;86980;-77
2022/11/18 15:38:51;;;;;;;0.40;0.00;;;10.60;83.90;;;;;;4842262;29;87376;-76
2022/11/18 15:41:25;;;;;;;0.80;0.00;;;10.50;84.40;;;;;;4840348;29;87082;-78
2022/11/18 15:43:52;;;;;;;0.30;0.00;;;10.40;84.50;;;;;;4834998;29;87494;-77
2022/11/18 15:46:20;;;;;;;1.38;0.10;;;10.40;85.30;;;;;;4835509;29;87083;-77
2022/11/18 15:48:47;;;;;;;1.30;0.10;;;10.30;85.90;;;;;;4840841;29;86851;-76
2022/11/18 15:51:13;;;;;;;0.60;0.05;;;10.30;85.60;;;;;;4833374;29;87078;-76
2022/11/18 15:53:39;;;;;;;1.38;0.10;;;10.20;85.00;;;;;;4834499;29;87024;-76
2022/11/18 15:56:14;;;;;;;0.40;0.00;;;10.20;84.80;;;;;;4833098;29;86797;-76
2022/11/18 15:58:39;;;;;;;0.60;0.00;;;10.20;85.10;;;;;;4831660;29;87277;-76
2022/11/18 16:01:05;;;;;;;0.20;0.10;;;10.20;84.50;;;;;;4830368;29;86991;-76
2022/11/18 16:03:32;;;;;;;1.75;0.00;;;10.20;83.70;;;;;;4826774;29;88348;-78
2022/11/18 16:05:58;;;;;;;0.28;0.00;;;10.20;84.30;;;;;;4840344;29;86507;-75
2022/11/18 16:08:23;;;;;;;0.45;0.00;;;10.20;84.70;;;;;;4841996;29;88377;-77
2022/11/18 16:13:39;;;;;;;0.57;0.00;;;10.10;85.20;;;;;;4833746;29;86426;-76
2022/11/18 16:16:05;;;;;;;1.92;0.00;;;10.10;84.60;;;;;;4839341;29;86815;-77
2022/11/18 16:18:30;;;;;;;1.10;0.10;;;10.10;84.90;;;;;;4841460;29;87274;-81
2022/11/18 16:20:58;;;;;;;0.93;0.10;;;10.10;84.60;;;;;;4835257;29;87046;-77
2022/11/18 16:23:23;;;;;;;0.82;0.10;;;10.10;84.50;;;;;;4837135;29;86874;-79
2022/11/18 16:25:49;;;;;;;1.75;0.10;;;10.10;85.30;;;;;;4839787;29;86075;-77
2022/11/18 16:28:15;;;;;;;1.63;0.10;;;10.10;86.90;;;;;;4837470;29;86799;-77
2022/11/18 16:33:30;;;;;;;0.70;0.10;;;10.00;87.50;;;;;;4844301;29;87800;-76
2022/11/18 16:35:56;;;;;;;1.02;0.10;;;9.90;88.10;;;;;;4832011;29;86878;-78
2022/11/18 16:38:21;;;;;;;1.00;0.10;;;9.90;88.60;;;;;;4841436;29;87275;-77
2022/11/18 16:40:55;;;;;;;0.60;0.10;;;9.80;88.50;;;;;;4831879;29;87396;-77
2022/11/18 16:43:20;;;;;;;1.25;0.10;;;9.80;89.00;;;;;;4837332;29;86871;-78
2022/11/18 16:45:53;;;;;;;1.83;0.20;;;9.80;89.90;;;;;;4831724;29;88127;-77
2022/11/18 16:48:20;;;;;;;2.78;0.10;;;9.80;89.20;;;;;;4841088;29;87785;-78
2022/11/18 16:51:14;;;;;;;1.05;0.20;;;9.80;89.90;;;;;;4838396;29;86863;-77
2022/11/18 16:53:40;;;;;;;1.30;0.10;;;9.90;89.40;;;;;;4837456;29;86821;-76
2022/11/18 16:56:05;;;;;;;11.05;5.32;;;9.80;88.90;;;;;;4835213;29;87082;-78
2022/11/18 16:58:31;;;;;;;8.48;3.70;;;9.80;89.30;;;;;;4829747;29;88044;-77
2022/11/18 17:00:56;;;;;;;7.80;3.40;;;9.80;89.60;;;;;;4831236;29;88460;-76
2022/11/18 17:03:22;;;;;;;3.95;1.25;;;9.90;90.00;;;;;;4838306;29;86829;-77
2022/11/18 17:05:48;;;;;;;3.78;0.50;;;9.90;89.90;;;;;;4842511;29;87071;-76
2022/11/18 17:08:13;;;;;;;1.50;0.30;;;9.90;89.90;;;;;;4839062;29;87315;-77
2022/11/18 17:10:39;;;;;;;3.72;1.23;;;9.90;89.20;;;;;;4833746;29;87343;-77
2022/11/18 17:13:04;;;;;;;4.53;1.33;;;9.90;89.50;;;;;;4835638;29;86705;-77
2022/11/18 17:15:30;;;;;;;2.83;0.88;;;9.90;90.10;;;;;;4836799;29;86083;-77
2022/11/18 17:17:56;;;;;;;1.95;0.38;;;9.80;89.50;;;;;;4836473;29;87245;-78
2022/11/18 17:20:21;;;;;;;3.05;0.88;;;9.80;90.10;;;;;;4833446;29;86741;-77
2022/11/18 17:22:47;;;;;;;3.47;0.70;;;9.80;89.30;;;;;;4831677;29;88688;-77
2022/11/18 17:25:13;;;;;;;8.02;0.90;;;9.70;90.10;;;;;;4842590;29;86576;-77
2022/11/18 17:27:38;;;;;;;2.50;0.95;;;9.70;89.70;;;;;;4834677;29;88621;-76